This is the latest recevied weather packets stored in our database for station/object OE6PLD-13. If no packets are shown the sender has not sent any weather packets the latest 10 day(s).
| Time | Temp. | Humidity | Pressure | Rain* | Wind** | Luminosity | Snow |
|---|---|---|---|---|---|---|---|
| 1778057770 | 22.22° C | 51% | 1013.7 hPa | 0.76 mm | - | 701 W/m² | - |
| 1778057587 | 22.22° C | 51% | 1013.9 hPa | 0.76 mm | - | 715 W/m² | - |
| 1778057403 | 22.22° C | 51% | 1013.8 hPa | 0.76 mm | - | 709 W/m² | - |
| 1778057220 | 22.78° C | 49% | 1013.7 hPa | 0.76 mm | - | 700 W/m² | - |
| 1778057037 | 22.22° C | 52% | 1013.7 hPa | 0.76 mm | - | 709 W/m² | - |
| 1778056853 | 22.22° C | 52% | 1013.6 hPa | 0.76 mm | - | 694 W/m² | - |
| 1778056670 | 22.22° C | 51% | 1013.6 hPa | 0.76 mm | - | 646 W/m² | - |
| 1778056487 | 21.67° C | 53% | 1013.5 hPa | 0.76 mm | - | 609 W/m² | - |
| 1778056304 | 21.11° C | 54% | 1013.6 hPa | 0.76 mm | - | 640 W/m² | - |
| 1778056120 | 21.67° C | 53% | 1013.7 hPa | 0.76 mm | - | 645 W/m² | - |
| 1778055937 | 21.67° C | 53% | 1013.8 hPa | 0.76 mm | - | 657 W/m² | - |
| 1778055753 | 21.11° C | 55% | 1013.9 hPa | 0.76 mm | - | 665 W/m² | - |
| 1778055570 | 21.11° C | 56% | 1013.7 hPa | 0.76 mm | - | 688 W/m² | - |
| 1778055387 | 20.56° C | 57% | 1013.8 hPa | 0.76 mm | - | 714 W/m² | - |
| 1778055203 | 20° C | 59% | 1014 hPa | 0.76 mm | - | 721 W/m² | - |
| 1778055020 | 20° C | 60% | 1013.9 hPa | 0.76 mm | - | 716 W/m² | - |
| 1778054836 | 20.56° C | 58% | 1014 hPa | 0.76 mm | - | 718 W/m² | - |
| 1778054652 | 20.56° C | 60% | 1014.1 hPa | 0.76 mm | - | 693 W/m² | - |
| 1778054469 | 20° C | 59% | 1014 hPa | 0.76 mm | - | 669 W/m² | - |
| 1778054285 | 20° C | 62% | 1014.2 hPa | 0.76 mm | - | 648 W/m² | - |
| 1778054102 | 20° C | 60% | 1013.8 hPa | 0.76 mm | - | 627 W/m² | - |
| 1778053919 | 20° C | 59% | 1014.1 hPa | 0.76 mm | - | 624 W/m² | - |
| 1778053735 | 20.56° C | 58% | 1013.8 hPa | 0.76 mm | - | 611 W/m² | - |
| 1778053552 | 20.56° C | 59% | 1013.7 hPa | 0.76 mm | - | 646 W/m² | - |
| 1778053369 | 20.56° C | 58% | 1013.8 hPa | 0.76 mm | - | 644 W/m² | - |
* Rain latest hour (hover to see other rain measurements)
** Current wind speed in m/s (hover to see current wind gust speed)